createdAt,value
2018-10-12T00:01:00.294Z,100586.00
2018-10-12T00:03:28.403Z,100586.00
2018-10-12T00:05:56.486Z,100592.00
2018-10-12T00:08:24.653Z,100597.00
2018-10-12T00:10:52.729Z,100596.00
2018-10-12T00:13:20.812Z,100596.00
2018-10-12T00:15:48.938Z,100590.00
2018-10-12T00:18:17.088Z,100608.00
2018-10-12T00:20:45.121Z,100587.00
2018-10-12T00:23:13.192Z,100599.00
2018-10-12T00:25:41.293Z,100609.00
2018-10-12T00:28:09.446Z,100609.00
2018-10-12T00:30:37.495Z,100620.00
2018-10-12T00:33:05.649Z,100622.00
2018-10-12T00:35:33.760Z,100625.00
2018-10-12T00:38:01.826Z,100626.00
2018-10-12T00:40:29.926Z,100632.00
2018-10-12T00:42:58.023Z,100627.00
2018-10-12T00:45:26.210Z,100633.00
2018-10-12T00:48:00.529Z,100634.00
2018-10-12T00:50:30.696Z,100636.00
2018-10-12T00:52:59.129Z,100641.00
2018-10-12T00:55:28.355Z,100638.00
2018-10-12T00:57:56.423Z,100643.00
2018-10-12T01:00:25.646Z,100649.00
2018-10-12T01:02:54.168Z,100644.00
2018-10-12T01:05:22.368Z,100635.00
2018-10-12T01:07:50.450Z,100624.00
2018-10-12T01:10:18.555Z,100630.00
2018-10-12T01:12:46.993Z,100624.00
2018-10-12T01:15:15.163Z,100626.00
2018-10-12T01:17:43.320Z,100628.00
2018-10-12T01:20:11.516Z,100622.00
2018-10-12T01:22:39.634Z,100640.00
2018-10-12T01:25:08.353Z,100643.00
2018-10-12T01:27:36.586Z,100640.00
2018-10-12T01:30:05.725Z,100641.00
2018-10-12T01:32:39.461Z,100646.00
2018-10-12T01:35:07.562Z,100639.00
2018-10-12T01:37:35.652Z,100645.00
2018-10-12T01:40:03.969Z,100648.00
2018-10-12T01:42:32.249Z,100638.00
2018-10-12T01:45:00.369Z,100645.00
2018-10-12T01:47:28.541Z,100652.00
2018-10-12T01:49:56.660Z,100649.00
2018-10-12T01:52:24.788Z,100643.00
2018-10-12T01:54:52.837Z,100650.00
2018-10-12T01:57:21.001Z,100645.00
2018-10-12T01:59:50.148Z,100648.00
2018-10-12T02:02:18.319Z,100645.00
2018-10-12T02:04:46.461Z,100651.00
2018-10-12T02:07:14.632Z,100662.00
2018-10-12T02:09:42.700Z,100663.00
2018-10-12T02:12:11.088Z,100669.00
2018-10-12T02:14:39.257Z,100676.00
2018-10-12T02:17:07.392Z,100674.00
2018-10-12T02:19:35.482Z,100685.00
2018-10-12T02:22:03.624Z,100681.00
2018-10-12T02:24:31.645Z,100681.00
2018-10-12T02:26:59.728Z,100683.00
2018-10-12T02:29:27.942Z,100682.00
2018-10-12T02:31:56.062Z,100695.00
2018-10-12T02:34:24.061Z,100701.00
2018-10-12T02:36:52.218Z,100706.00
2018-10-12T02:39:20.356Z,100711.00
2018-10-12T02:41:48.537Z,100710.00
2018-10-12T02:44:16.591Z,100730.00
2018-10-12T02:46:44.620Z,100721.00
2018-10-12T02:49:12.784Z,100727.00
2018-10-12T02:51:40.886Z,100726.00
2018-10-12T02:54:08.957Z,100725.00
2018-10-12T02:56:37.012Z,100725.00
2018-10-12T02:59:05.457Z,100722.00
2018-10-12T03:01:33.608Z,100730.00
2018-10-12T03:04:01.689Z,100726.00
2018-10-12T03:06:29.748Z,100717.00
2018-10-12T03:08:57.860Z,100723.00
2018-10-12T03:11:26.033Z,100727.00
2018-10-12T03:13:54.172Z,100730.00
2018-10-12T03:16:22.242Z,100726.00
2018-10-12T03:18:50.374Z,100734.00
2018-10-12T03:21:18.383Z,100735.00
2018-10-12T03:23:46.461Z,100742.00
2018-10-12T03:26:14.604Z,100751.00
2018-10-12T03:28:42.735Z,100752.00
2018-10-12T03:31:10.902Z,100753.00
2018-10-12T03:33:39.434Z,100701.00
2018-10-12T03:36:07.593Z,100766.00
2018-10-12T03:38:35.750Z,100759.00
2018-10-12T03:41:03.873Z,100761.00
2018-10-12T03:43:32.813Z,100769.00
2018-10-12T03:46:00.964Z,100765.00
2018-10-12T03:48:29.116Z,100768.00
2018-10-12T03:50:57.265Z,100768.00
2018-10-12T03:53:25.383Z,100772.00
2018-10-12T03:55:53.577Z,100777.00
2018-10-12T03:58:21.702Z,100788.00
2018-10-12T04:00:49.774Z,100780.00
2018-10-12T04:03:17.890Z,100782.00
2018-10-12T04:05:46.159Z,100778.00
2018-10-12T04:08:14.270Z,100780.00
2018-10-12T04:10:42.293Z,100789.00
2018-10-12T04:13:10.359Z,100796.00
2018-10-12T04:15:38.696Z,100795.00
2018-10-12T04:18:06.874Z,100799.00
2018-10-12T04:20:34.930Z,100808.00
2018-10-12T04:23:03.040Z,100810.00
2018-10-12T04:25:31.111Z,100802.00
2018-10-12T04:27:59.187Z,100800.00
2018-10-12T04:30:27.276Z,100799.00
2018-10-12T04:32:55.370Z,100809.00
2018-10-12T04:35:23.431Z,100803.00
2018-10-12T04:37:51.983Z,100799.00
2018-10-12T04:41:28.577Z,100802.00
2018-10-12T04:44:00.104Z,100809.00
2018-10-12T04:46:35.567Z,100819.00
2018-10-12T04:49:05.717Z,100814.00
2018-10-12T04:51:45.464Z,100824.00
2018-10-12T04:54:13.655Z,100831.00
2018-10-12T04:56:49.767Z,100844.00
2018-10-12T04:59:18.221Z,100850.00
2018-10-12T05:01:46.352Z,100847.00
2018-10-12T05:04:14.496Z,100847.00
2018-10-12T05:06:42.723Z,100853.00
2018-10-12T05:09:12.690Z,100852.00
2018-10-12T05:11:40.936Z,100865.00
2018-10-12T05:14:09.764Z,100861.00
2018-10-12T05:16:38.034Z,100875.00
2018-10-12T05:19:06.585Z,100865.00
2018-10-12T05:21:34.614Z,100871.00
2018-10-12T05:24:03.169Z,100870.00
2018-10-12T05:26:31.235Z,100883.00
2018-10-12T05:28:59.770Z,100878.00
2018-10-12T05:31:28.122Z,100882.00
2018-10-12T05:33:56.223Z,100883.00
2018-10-12T05:36:24.252Z,100874.00
2018-10-12T05:38:52.348Z,100887.00
2018-10-12T05:41:20.373Z,100884.00
2018-10-12T05:43:48.482Z,100894.00
2018-10-12T05:46:16.504Z,100888.00
2018-10-12T05:49:01.670Z,100889.00
2018-10-12T05:51:29.755Z,100897.00
2018-10-12T05:53:58.216Z,100906.00
2018-10-12T05:56:29.769Z,100909.00
2018-10-12T05:58:58.511Z,100921.00
2018-10-12T06:01:26.725Z,100921.00
2018-10-12T06:03:54.727Z,100919.00
2018-10-12T06:06:22.817Z,100927.00
2018-10-12T06:08:50.972Z,100940.00
2018-10-12T06:11:19.103Z,100941.00
2018-10-12T06:13:47.235Z,100944.00
2018-10-12T06:16:15.283Z,100944.00
2018-10-12T06:18:43.310Z,100940.00
2018-10-12T06:21:11.395Z,100938.00
2018-10-12T06:23:39.589Z,100932.00
2018-10-12T06:26:07.749Z,100930.00
2018-10-12T06:28:35.903Z,100931.00
2018-10-12T06:31:03.968Z,100945.00
2018-10-12T06:33:32.076Z,100958.00
2018-10-12T06:36:00.155Z,100971.00
2018-10-12T06:38:28.300Z,100990.00
2018-10-12T06:40:56.386Z,100998.00
2018-10-12T06:43:24.500Z,100996.00
2018-10-12T06:45:52.713Z,101000.00
2018-10-12T06:48:20.803Z,100995.00
2018-10-12T06:50:48.886Z,101008.00
2018-10-12T06:53:16.879Z,100992.00
2018-10-12T06:55:44.925Z,101002.00
2018-10-12T06:58:13.478Z,101020.00
2018-10-12T07:00:41.701Z,101010.00
2018-10-12T07:03:10.205Z,101013.00
2018-10-12T07:05:37.966Z,101025.00
2018-10-12T07:08:06.050Z,101031.00
2018-10-12T07:10:34.133Z,101018.00
2018-10-12T07:13:02.187Z,101020.00
2018-10-12T07:15:30.299Z,101027.00
2018-10-12T07:17:58.432Z,101046.00
2018-10-12T07:20:26.535Z,101051.00
2018-10-12T07:22:55.085Z,101047.00
2018-10-12T07:25:23.244Z,101050.00
2018-10-12T07:27:51.567Z,101043.00
2018-10-12T07:30:19.718Z,101048.00
2018-10-12T07:32:47.861Z,101054.00
2018-10-12T07:35:16.127Z,101061.00
2018-10-12T07:37:44.536Z,101057.00
2018-10-12T07:40:12.433Z,101054.00
2018-10-12T07:42:40.639Z,101051.00
2018-10-12T07:45:08.830Z,101052.00
2018-10-12T07:47:36.965Z,101043.00
2018-10-12T07:50:05.211Z,101045.00
2018-10-12T07:52:33.578Z,101053.00
2018-10-12T07:55:01.796Z,101056.00
2018-10-12T07:57:32.868Z,101071.00
2018-10-12T08:00:01.480Z,101066.00
2018-10-12T08:02:29.695Z,101069.00
2018-10-12T08:04:58.041Z,101076.00
2018-10-12T08:07:26.154Z,101079.00
2018-10-12T08:09:54.309Z,101071.00
2018-10-12T08:12:22.435Z,101074.00
2018-10-12T08:14:50.605Z,101071.00
2018-10-12T08:17:18.820Z,101070.00
2018-10-12T08:19:47.262Z,101079.00
2018-10-12T08:22:15.525Z,101087.00
2018-10-12T08:24:43.723Z,101085.00
2018-10-12T08:27:12.337Z,101087.00
2018-10-12T08:29:40.100Z,101095.00
2018-10-12T08:32:08.381Z,101093.00
2018-10-12T08:34:36.543Z,101108.00
2018-10-12T08:37:04.959Z,101110.00
2018-10-12T08:39:33.198Z,101104.00
2018-10-12T08:42:01.612Z,101112.00
2018-10-12T08:44:29.821Z,101106.00
2018-10-12T08:46:58.019Z,101109.00
2018-10-12T08:49:26.151Z,101113.00
2018-10-12T08:51:54.337Z,101117.00
2018-10-12T08:54:22.567Z,101120.00
2018-10-12T08:56:50.849Z,101118.00
2018-10-12T08:59:19.021Z,101116.00
2018-10-12T09:01:47.269Z,101111.00
2018-10-12T09:04:15.450Z,101115.00
2018-10-12T09:06:43.655Z,101119.00
2018-10-12T09:09:11.760Z,101135.00
2018-10-12T09:11:40.556Z,101127.00
2018-10-12T09:14:09.088Z,101125.00
2018-10-12T09:16:37.293Z,101121.00
2018-10-12T09:19:05.857Z,101111.00
2018-10-12T09:21:33.975Z,101120.00
2018-10-12T09:24:02.093Z,101123.00
2018-10-12T09:26:30.376Z,101109.00
2018-10-12T09:28:58.709Z,101116.00
2018-10-12T09:31:26.901Z,101120.00
2018-10-12T09:33:55.106Z,101117.00
2018-10-12T09:36:23.379Z,101123.00
2018-10-12T09:38:51.574Z,101134.00
2018-10-12T09:41:19.833Z,101128.00
2018-10-12T09:43:48.039Z,101121.00
2018-10-12T09:46:16.206Z,101122.00
2018-10-12T09:48:44.361Z,101122.00
2018-10-12T09:51:12.479Z,101121.00
2018-10-12T09:53:40.645Z,101121.00
2018-10-12T09:56:08.884Z,101119.00
2018-10-12T09:58:36.997Z,101116.00
2018-10-12T10:01:10.900Z,101111.00
2018-10-12T10:03:44.862Z,101115.00
2018-10-12T10:06:13.109Z,101116.00
2018-10-12T10:08:41.493Z,101111.00
2018-10-12T10:11:09.796Z,101112.00
2018-10-12T10:13:37.952Z,101108.00
2018-10-12T10:16:06.104Z,101113.00
2018-10-12T10:18:34.273Z,101112.00
2018-10-12T10:21:02.557Z,101116.00
2018-10-12T10:23:30.701Z,101110.00
2018-10-12T10:25:59.268Z,101105.00
2018-10-12T10:28:27.505Z,101112.00
2018-10-12T10:30:55.742Z,101116.00
2018-10-12T10:33:23.987Z,101111.00
2018-10-12T10:35:52.273Z,101117.00
2018-10-12T10:38:20.582Z,101118.00
2018-10-12T10:40:48.820Z,101111.00
2018-10-12T10:43:17.026Z,101112.00
2018-10-12T10:45:45.310Z,101106.00
2018-10-12T10:48:13.615Z,101099.00
2018-10-12T10:50:41.872Z,101094.00
2018-10-12T10:53:10.248Z,101091.00
2018-10-12T10:55:38.517Z,101090.00
2018-10-12T10:58:06.980Z,101088.00
2018-10-12T11:00:35.428Z,101082.00
2018-10-12T11:03:03.607Z,101082.00
2018-10-12T11:05:31.826Z,101074.00
2018-10-12T11:08:00.050Z,101070.00
2018-10-12T11:10:28.200Z,101070.00
2018-10-12T11:12:56.578Z,101072.00
2018-10-12T11:15:24.626Z,101067.00
2018-10-12T11:17:52.844Z,101072.00
2018-10-12T11:20:21.525Z,101055.00
2018-10-12T11:22:49.737Z,101064.00
2018-10-12T11:25:17.931Z,101066.00
2018-10-12T11:27:46.071Z,101060.00
2018-10-12T11:30:14.432Z,101069.00
2018-10-12T11:32:42.761Z,101064.00
2018-10-12T11:35:11.420Z,101057.00
2018-10-12T11:37:39.623Z,101060.00
2018-10-12T11:40:07.890Z,101057.00
2018-10-12T11:42:53.281Z,101052.00
2018-10-12T11:45:21.556Z,101056.00
2018-10-12T11:47:49.813Z,101055.00
2018-10-12T11:50:18.217Z,101049.00
2018-10-12T11:52:46.449Z,101046.00
2018-10-12T11:55:14.714Z,101052.00
2018-10-12T11:57:42.965Z,101060.00
2018-10-12T12:00:12.092Z,101057.00
2018-10-12T12:02:40.504Z,101054.00
2018-10-12T12:05:08.781Z,101054.00
2018-10-12T12:07:37.013Z,101049.00
2018-10-12T12:10:05.509Z,101049.00
2018-10-12T12:12:33.688Z,101047.00
2018-10-12T12:15:01.912Z,101039.00
2018-10-12T12:17:30.096Z,101035.00
2018-10-12T12:19:58.283Z,101030.00
2018-10-12T12:22:26.586Z,101022.00
2018-10-12T12:24:54.840Z,101026.00
2018-10-12T12:27:23.620Z,101025.00
2018-10-12T12:29:52.859Z,101024.00
2018-10-12T12:32:21.530Z,101021.00
2018-10-12T12:34:49.792Z,101025.00
2018-10-12T12:37:17.752Z,101026.00
2018-10-12T12:39:45.823Z,101019.00
2018-10-12T12:42:13.962Z,101027.00
2018-10-12T12:44:42.129Z,101022.00
2018-10-12T12:47:10.490Z,101019.00
2018-10-12T12:49:38.664Z,101022.00
2018-10-12T12:52:06.843Z,101021.00
2018-10-12T12:54:35.040Z,101020.00
2018-10-12T12:57:03.237Z,101013.00
2018-10-12T12:59:31.324Z,101016.00
2018-10-12T13:01:59.491Z,101013.00
2018-10-12T13:04:27.671Z,101017.00
2018-10-12T13:06:55.790Z,101015.00
2018-10-12T13:09:26.551Z,101021.00
2018-10-12T13:11:54.736Z,101010.00
2018-10-12T13:14:22.939Z,101011.00
2018-10-12T13:16:51.126Z,101022.00
2018-10-12T13:19:19.351Z,101018.00
2018-10-12T13:21:47.584Z,101022.00
2018-10-12T13:24:16.448Z,101014.00
2018-10-12T13:26:44.676Z,101012.00
2018-10-12T13:29:12.850Z,101012.00
2018-10-12T13:31:41.436Z,101021.00
2018-10-12T13:34:09.722Z,101020.00
2018-10-12T13:36:37.944Z,101026.00
2018-10-12T13:39:10.607Z,101031.00
2018-10-12T13:41:38.918Z,101022.00
2018-10-12T13:44:07.676Z,101024.00
2018-10-12T13:46:36.167Z,101016.00
2018-10-12T13:49:04.489Z,101018.00
2018-10-12T13:51:32.816Z,101019.00
2018-10-12T13:54:01.033Z,101019.00
2018-10-12T13:56:29.289Z,101022.00
2018-10-12T13:58:57.531Z,101024.00
2018-10-12T14:01:25.744Z,101022.00
2018-10-12T14:03:53.904Z,101011.00
2018-10-12T14:06:22.191Z,101013.00
2018-10-12T14:08:50.480Z,101007.00
2018-10-12T14:11:18.689Z,101014.00
2018-10-12T14:13:46.865Z,101010.00
2018-10-12T14:16:15.036Z,101014.00
2018-10-12T14:18:43.349Z,101019.00
2018-10-12T14:21:11.428Z,101008.00
2018-10-12T14:23:39.587Z,101002.00
2018-10-12T14:26:07.943Z,101004.00
2018-10-12T14:28:36.253Z,101008.00
2018-10-12T14:31:04.469Z,101011.00
2018-10-12T14:33:32.712Z,101007.00
2018-10-12T14:36:00.880Z,101017.00
2018-10-12T14:38:29.158Z,101024.00
2018-10-12T14:40:57.339Z,101013.00
2018-10-12T14:43:25.689Z,101017.00
2018-10-12T14:45:53.914Z,101012.00
2018-10-12T14:48:22.053Z,101008.00
2018-10-12T14:50:50.317Z,101017.00
2018-10-12T14:53:18.648Z,101014.00
2018-10-12T14:55:47.003Z,101014.00
2018-10-12T14:58:15.411Z,101031.00
2018-10-12T15:00:43.711Z,101016.00
2018-10-12T15:03:12.052Z,101027.00
2018-10-12T15:05:40.310Z,101019.00
2018-10-12T15:08:08.496Z,101030.00
2018-10-12T15:10:36.781Z,101021.00
2018-10-12T15:13:04.911Z,101020.00
2018-10-12T15:15:33.336Z,101014.00
2018-10-12T15:18:01.519Z,101019.00
2018-10-12T15:20:29.704Z,101024.00
2018-10-12T15:22:57.901Z,101023.00
2018-10-12T15:25:26.146Z,101027.00
2018-10-12T15:27:54.373Z,101029.00
2018-10-12T15:30:22.621Z,101031.00
2018-10-12T15:32:50.849Z,101036.00
2018-10-12T15:35:19.230Z,101030.00
2018-10-12T15:37:47.561Z,101036.00
2018-10-12T15:40:15.819Z,101040.00
2018-10-12T15:42:44.068Z,101039.00
2018-10-12T15:45:12.305Z,101034.00
2018-10-12T15:47:40.576Z,101040.00
2018-10-12T15:50:08.799Z,101036.00
2018-10-12T15:52:36.959Z,101041.00
2018-10-12T15:55:05.275Z,101048.00
2018-10-12T15:57:33.433Z,101048.00
2018-10-12T16:00:01.713Z,101042.00
2018-10-12T16:02:30.110Z,101040.00
2018-10-12T16:04:58.249Z,101055.00
2018-10-12T16:07:26.858Z,101053.00
2018-10-12T16:09:55.153Z,101050.00
2018-10-12T16:12:23.823Z,101051.00
2018-10-12T16:14:52.029Z,101053.00
2018-10-12T16:17:20.245Z,101049.00
2018-10-12T16:19:48.539Z,101052.00
2018-10-12T16:22:16.787Z,101047.00
2018-10-12T16:25:01.949Z,101045.00
2018-10-12T16:27:30.245Z,101062.00
2018-10-12T16:29:58.622Z,101054.00
2018-10-12T16:32:26.821Z,101045.00
2018-10-12T16:34:57.236Z,101054.00
2018-10-12T16:37:25.496Z,101053.00
2018-10-12T16:39:53.748Z,101051.00
2018-10-12T16:42:22.116Z,101059.00
2018-10-12T16:44:50.401Z,101067.00
2018-10-12T16:47:18.678Z,101074.00
2018-10-12T16:49:46.981Z,101073.00
2018-10-12T16:52:15.220Z,101069.00
2018-10-12T16:54:43.607Z,101077.00
2018-10-12T16:57:11.937Z,101074.00
2018-10-12T16:59:40.248Z,101077.00
2018-10-12T17:02:08.415Z,101075.00
2018-10-12T17:04:36.717Z,101075.00
2018-10-12T17:07:04.921Z,101045.00
2018-10-12T17:09:33.125Z,101078.00
2018-10-12T17:12:01.335Z,101073.00
2018-10-12T17:14:29.771Z,101079.00
2018-10-12T17:16:58.040Z,101083.00
2018-10-12T17:19:26.323Z,101078.00
2018-10-12T17:21:54.530Z,101079.00
2018-10-12T17:24:22.762Z,101080.00
2018-10-12T17:26:51.124Z,101092.00
2018-10-12T17:29:19.396Z,101081.00
2018-10-12T17:31:47.645Z,101086.00
2018-10-12T17:34:15.887Z,101089.00
2018-10-12T17:36:44.151Z,101092.00
2018-10-12T17:39:13.156Z,101094.00
2018-10-12T17:41:41.431Z,101095.00
2018-10-12T17:44:09.759Z,101106.00
2018-10-12T17:46:38.012Z,101109.00
2018-10-12T17:49:06.248Z,101100.00
2018-10-12T17:51:34.603Z,101094.00
2018-10-12T17:54:02.983Z,101108.00
2018-10-12T17:56:31.535Z,101106.00
2018-10-12T17:59:00.137Z,101104.00
2018-10-12T18:01:28.420Z,101106.00
2018-10-12T18:03:56.603Z,101111.00
2018-10-12T18:06:24.869Z,101117.00
2018-10-12T18:08:53.227Z,101106.00
2018-10-12T18:11:21.700Z,101107.00
2018-10-12T18:13:50.107Z,101109.00
2018-10-12T18:16:18.408Z,101115.00
2018-10-12T18:18:46.776Z,101117.00
2018-10-12T18:21:15.182Z,101112.00
2018-10-12T18:23:43.775Z,101116.00
2018-10-12T18:26:12.206Z,101117.00
2018-10-12T18:28:40.478Z,101114.00
2018-10-12T18:31:08.701Z,101120.00
2018-10-12T18:33:37.011Z,101120.00
2018-10-12T18:36:05.490Z,101115.00
2018-10-12T18:38:33.781Z,101121.00
2018-10-12T18:41:02.164Z,101125.00
2018-10-12T18:43:30.605Z,101121.00
2018-10-12T18:45:58.883Z,101118.00
2018-10-12T18:48:27.191Z,101127.00
2018-10-12T18:50:55.568Z,101122.00
2018-10-12T18:53:23.856Z,101132.00
2018-10-12T18:55:52.322Z,101129.00
2018-10-12T18:58:20.671Z,101130.00
2018-10-12T19:00:48.958Z,101130.00
2018-10-12T19:03:17.256Z,101126.00
2018-10-12T19:05:45.637Z,101134.00
2018-10-12T19:08:13.925Z,101130.00
2018-10-12T19:10:42.338Z,101128.00
2018-10-12T19:13:10.754Z,101127.00
2018-10-12T19:15:39.170Z,101127.00
2018-10-12T19:18:09.152Z,101136.00
2018-10-12T19:20:38.136Z,101130.00
2018-10-12T19:23:06.939Z,101129.00
2018-10-12T19:25:36.442Z,101141.00
2018-10-12T19:28:05.138Z,101145.00
2018-10-12T19:30:33.703Z,101140.00
2018-10-12T19:33:02.257Z,101147.00
2018-10-12T19:35:30.968Z,101152.00
2018-10-12T19:37:59.462Z,101150.00
2018-10-12T19:40:28.011Z,101152.00
2018-10-12T19:42:56.555Z,101143.00
2018-10-12T19:45:24.852Z,101151.00
2018-10-12T19:47:53.512Z,101149.00
2018-10-12T19:50:22.027Z,101151.00
2018-10-12T19:52:50.708Z,101162.00
2018-10-12T19:55:19.152Z,101149.00
2018-10-12T19:57:47.724Z,101161.00
2018-10-12T20:00:16.205Z,101164.00
2018-10-12T20:02:44.562Z,101150.00
2018-10-12T20:05:13.083Z,101162.00
2018-10-12T20:07:42.421Z,101163.00
2018-10-12T20:10:11.397Z,101157.00
2018-10-12T20:12:39.718Z,101169.00
2018-10-12T20:15:08.098Z,101164.00
2018-10-12T20:17:36.370Z,101167.00
2018-10-12T20:20:04.748Z,101168.00
2018-10-12T20:22:33.031Z,101172.00
2018-10-12T20:25:01.672Z,101166.00
2018-10-12T20:27:29.960Z,101172.00
2018-10-12T20:29:58.337Z,101175.00
2018-10-12T20:32:26.663Z,101170.00
2018-10-12T20:34:55.119Z,101171.00
2018-10-12T20:37:23.403Z,101176.00
2018-10-12T20:39:51.690Z,101181.00
2018-10-12T20:42:20.024Z,101173.00
2018-10-12T20:44:48.368Z,101177.00
2018-10-12T20:47:16.739Z,101176.00
2018-10-12T20:49:45.219Z,101169.00
2018-10-12T20:52:13.508Z,101171.00
2018-10-12T20:54:41.844Z,101173.00
2018-10-12T20:57:10.301Z,101171.00
2018-10-12T20:59:38.623Z,101184.00
2018-10-12T21:02:07.210Z,101179.00
2018-10-12T21:04:35.535Z,101175.00
2018-10-12T21:07:03.949Z,101180.00
2018-10-12T21:09:32.346Z,101173.00
2018-10-12T21:12:00.691Z,101177.00
2018-10-12T21:14:28.887Z,101177.00
2018-10-12T21:16:57.247Z,101185.00
2018-10-12T21:19:25.486Z,101182.00
2018-10-12T21:21:54.103Z,101173.00
2018-10-12T21:24:22.358Z,101181.00
2018-10-12T21:26:50.552Z,101179.00
2018-10-12T21:29:18.946Z,101179.00
2018-10-12T21:31:47.952Z,101168.00
2018-10-12T21:34:16.311Z,101178.00
2018-10-12T21:36:44.676Z,101174.00
2018-10-12T21:39:13.156Z,101183.00
2018-10-12T21:41:41.581Z,101186.00
2018-10-12T21:44:10.034Z,101185.00
2018-10-12T21:46:38.334Z,101181.00
2018-10-12T21:49:06.593Z,101186.00
2018-10-12T21:51:34.793Z,101184.00
2018-10-12T21:54:03.054Z,101184.00
2018-10-12T21:56:31.387Z,101182.00
2018-10-12T21:58:59.479Z,101183.00
2018-10-12T22:01:27.672Z,101175.00
2018-10-12T22:03:55.840Z,101182.00
2018-10-12T22:06:24.172Z,101173.00
2018-10-12T22:08:56.906Z,101176.00
2018-10-12T22:11:25.214Z,101160.00
2018-10-12T22:13:53.712Z,101165.00
2018-10-12T22:16:21.865Z,101157.00
2018-10-12T22:18:50.313Z,101153.00
2018-10-12T22:21:18.573Z,101156.00
2018-10-12T22:23:46.821Z,101153.00
2018-10-12T22:26:15.101Z,101150.00
2018-10-12T22:28:43.255Z,101152.00
2018-10-12T22:31:11.601Z,101149.00
2018-10-12T22:33:39.906Z,101148.00
2018-10-12T22:36:08.202Z,101146.00
2018-10-12T22:38:36.476Z,101142.00
2018-10-12T22:41:04.672Z,101135.00
2018-10-12T22:43:32.856Z,101139.00
2018-10-12T22:46:01.059Z,101134.00
2018-10-12T22:48:29.272Z,101135.00
2018-10-12T22:50:57.483Z,101136.00
2018-10-12T22:53:25.664Z,101138.00
2018-10-12T22:55:54.016Z,101133.00
2018-10-12T22:58:22.217Z,101128.00
2018-10-12T23:00:50.534Z,101132.00
2018-10-12T23:03:18.800Z,101130.00
2018-10-12T23:05:46.840Z,101126.00
2018-10-12T23:08:15.325Z,101132.00
2018-10-12T23:10:43.548Z,101133.00
2018-10-12T23:13:12.480Z,101127.00
2018-10-12T23:15:40.630Z,101132.00
2018-10-12T23:18:08.818Z,101129.00
2018-10-12T23:20:36.997Z,101132.00
2018-10-12T23:23:05.625Z,101123.00
2018-10-12T23:25:33.802Z,101125.00
2018-10-12T23:28:02.081Z,101116.00
2018-10-12T23:30:30.264Z,101118.00
2018-10-12T23:33:15.484Z,101120.00
2018-10-12T23:35:43.659Z,101116.00
2018-10-12T23:38:12.064Z,101112.00
2018-10-12T23:40:40.192Z,101121.00
2018-10-12T23:43:08.372Z,101120.00
2018-10-12T23:45:36.565Z,101128.00
2018-10-12T23:48:04.679Z,101118.00
2018-10-12T23:50:32.866Z,101123.00
2018-10-12T23:53:01.048Z,101118.00
2018-10-12T23:55:29.212Z,101122.00
2018-10-12T23:57:57.390Z,101114.00
